sensor_id;sensor_type;location;lat;lon;timestamp;pressure;altitude;pressure_sealevel;temperature;humidity
76998;BME280;65930;48.874;10.734;2023-04-25T00:01:20;95371.13;;;6.94;73.64
76998;BME280;65930;48.874;10.734;2023-04-25T00:03:49;95374.25;;;6.96;74.26
76998;BME280;65930;48.874;10.734;2023-04-25T00:06:18;95361.28;;;6.93;73.56
76998;BME280;65930;48.874;10.734;2023-04-25T00:08:47;95371.50;;;7.03;73.75
76998;BME280;65930;48.874;10.734;2023-04-25T00:11:15;95367.56;;;6.97;73.43
76998;BME280;65930;48.874;10.734;2023-04-25T00:13:43;95370.31;;;6.87;73.40
76998;BME280;65930;48.874;10.734;2023-04-25T00:16:13;95363.66;;;6.81;73.60
76998;BME280;65930;48.874;10.734;2023-04-25T00:18:42;95362.06;;;6.83;73.58
76998;BME280;65930;48.874;10.734;2023-04-25T00:21:12;95378.59;;;6.94;73.68
76998;BME280;65930;48.874;10.734;2023-04-25T00:23:39;95367.16;;;6.88;73.92
76998;BME280;65930;48.874;10.734;2023-04-25T00:26:07;95379.75;;;6.89;74.03
76998;BME280;65930;48.874;10.734;2023-04-25T00:28:35;95376.22;;;6.89;73.58
76998;BME280;65930;48.874;10.734;2023-04-25T00:31:04;95376.22;;;6.85;73.64
76998;BME280;65930;48.874;10.734;2023-04-25T00:33:32;95373.47;;;6.78;73.41
76998;BME280;65930;48.874;10.734;2023-04-25T00:36:00;95374.25;;;6.86;73.64
76998;BME280;65930;48.874;10.734;2023-04-25T00:38:29;95373.06;;;6.73;74.18
76998;BME280;65930;48.874;10.734;2023-04-25T00:40:58;95372.66;;;6.78;74.46
76998;BME280;65930;48.874;10.734;2023-04-25T00:43:27;95355.00;;;6.72;73.80
76998;BME280;65930;48.874;10.734;2023-04-25T00:45:56;95354.97;;;6.75;73.89
76998;BME280;65930;48.874;10.734;2023-04-25T00:48:24;95355.75;;;6.83;73.59
76998;BME280;65930;48.874;10.734;2023-04-25T00:50:54;95351.44;;;6.78;74.24
76998;BME280;65930;48.874;10.734;2023-04-25T00:53:25;95368.34;;;6.84;74.07
76998;BME280;65930;48.874;10.734;2023-04-25T00:55:55;95351.44;;;6.92;73.43
76998;BME280;65930;48.874;10.734;2023-04-25T00:58:24;95348.69;;;6.82;72.76
76998;BME280;65930;48.874;10.734;2023-04-25T01:00:52;95367.56;;;6.83;73.11
76998;BME280;65930;48.874;10.734;2023-04-25T01:03:20;95341.59;;;6.74;74.34
76998;BME280;65930;48.874;10.734;2023-04-25T01:05:50;95339.66;;;6.71;73.53
76998;BME280;65930;48.874;10.734;2023-04-25T01:08:21;95357.34;;;6.73;73.68
76998;BME280;65930;48.874;10.734;2023-04-25T01:10:51;95339.66;;;6.71;73.86
76998;BME280;65930;48.874;10.734;2023-04-25T01:13:20;95325.88;;;6.81;74.56
76998;BME280;65930;48.874;10.734;2023-04-25T01:15:48;95350.28;;;6.90;74.24
76998;BME280;65930;48.874;10.734;2023-04-25T01:18:20;95356.53;;;6.87;73.79
76998;BME280;65930;48.874;10.734;2023-04-25T01:20:50;95333.34;;;6.74;74.11
76998;BME280;65930;48.874;10.734;2023-04-25T01:23:20;95349.47;;;6.75;74.51
76998;BME280;65930;48.874;10.734;2023-04-25T01:25:49;95342.00;;;6.83;74.34
76998;BME280;65930;48.874;10.734;2023-04-25T01:28:19;95319.97;;;6.79;74.41
76998;BME280;65930;48.874;10.734;2023-04-25T01:30:48;95335.31;;;6.91;74.37
76998;BME280;65930;48.874;10.734;2023-04-25T01:33:19;95339.63;;;6.78;74.94
76998;BME280;65930;48.874;10.734;2023-04-25T01:35:48;95332.16;;;6.78;74.75
76998;BME280;65930;48.874;10.734;2023-04-25T01:38:16;95327.84;;;6.59;75.25
76998;BME280;65930;48.874;10.734;2023-04-25T01:40:46;95328.25;;;6.76;75.14
76998;BME280;65930;48.874;10.734;2023-04-25T01:43:14;95330.22;;;6.75;74.97
76998;BME280;65930;48.874;10.734;2023-04-25T01:45:42;95321.16;;;6.75;74.74
76998;BME280;65930;48.874;10.734;2023-04-25T01:48:12;95326.69;;;6.71;75.00
76998;BME280;65930;48.874;10.734;2023-04-25T01:50:41;95323.53;;;6.76;75.59
76998;BME280;65930;48.874;10.734;2023-04-25T01:53:09;95336.13;;;6.81;75.19
76998;BME280;65930;48.874;10.734;2023-04-25T01:55:39;95338.47;;;6.79;74.96
76998;BME280;65930;48.874;10.734;2023-04-25T01:58:09;95336.50;;;6.79;75.41
76998;BME280;65930;48.874;10.734;2023-04-25T02:00:41;95315.66;;;6.71;74.84
76998;BME280;65930;48.874;10.734;2023-04-25T02:03:20;95311.72;;;6.72;75.30
76998;BME280;65930;48.874;10.734;2023-04-25T02:05:53;95302.28;;;6.77;75.08
76998;BME280;65930;48.874;10.734;2023-04-25T02:08:22;95285.78;;;6.66;75.02
76998;BME280;65930;48.874;10.734;2023-04-25T02:10:53;95318.00;;;6.83;74.88
76998;BME280;65930;48.874;10.734;2023-04-25T02:13:23;95310.94;;;6.54;76.05
76998;BME280;65930;48.874;10.734;2023-04-25T02:15:57;95314.09;;;6.56;76.07
76998;BME280;65930;48.874;10.734;2023-04-25T02:18:27;95316.44;;;6.47;75.93
76998;BME280;65930;48.874;10.734;2023-04-25T02:20:56;95321.94;;;6.54;76.03
76998;BME280;65930;48.874;10.734;2023-04-25T02:23:25;95282.63;;;6.32;76.31
76998;BME280;65930;48.874;10.734;2023-04-25T02:25:53;95316.41;;;6.36;76.60
76998;BME280;65930;48.874;10.734;2023-04-25T02:28:23;95276.72;;;6.27;76.51
76998;BME280;65930;48.874;10.734;2023-04-25T02:30:52;95269.25;;;6.24;76.46
76998;BME280;65930;48.874;10.734;2023-04-25T02:33:21;95300.31;;;6.42;76.58
76998;BME280;65930;48.874;10.734;2023-04-25T02:35:49;95322.72;;;6.44;76.58
76998;BME280;65930;48.874;10.734;2023-04-25T02:38:20;95325.88;;;6.42;77.50
76998;BME280;65930;48.874;10.734;2023-04-25T02:40:48;95306.59;;;6.32;77.33
76998;BME280;65930;48.874;10.734;2023-04-25T02:43:18;95308.53;;;6.35;77.92
76998;BME280;65930;48.874;10.734;2023-04-25T02:46:01;95307.00;;;6.34;77.59
76998;BME280;65930;48.874;10.734;2023-04-25T02:48:30;95268.84;;;6.18;77.44
76998;BME280;65930;48.874;10.734;2023-04-25T02:50:59;95312.09;;;6.35;77.57
76998;BME280;65930;48.874;10.734;2023-04-25T02:53:31;95299.53;;;6.41;77.64
76998;BME280;65930;48.874;10.734;2023-04-25T02:56:06;95310.94;;;6.47;77.51
76998;BME280;65930;48.874;10.734;2023-04-25T02:58:34;95264.53;;;6.28;77.09
76998;BME280;65930;48.874;10.734;2023-04-25T03:01:06;95300.31;;;6.56;77.20
76998;BME280;65930;48.874;10.734;2023-04-25T03:03:38;95293.25;;;6.51;76.97
76998;BME280;65930;48.874;10.734;2023-04-25T03:06:07;95297.19;;;6.61;76.44
76998;BME280;65930;48.874;10.734;2023-04-25T03:08:42;95296.78;;;6.45;77.49
76998;BME280;65930;48.874;10.734;2023-04-25T03:11:11;95293.66;;;6.43;77.10
76998;BME280;65930;48.874;10.734;2023-04-25T03:13:39;95281.06;;;6.42;77.10
76998;BME280;65930;48.874;10.734;2023-04-25T03:16:09;95296.00;;;6.58;76.90
76998;BME280;65930;48.874;10.734;2023-04-25T03:18:38;95309.38;;;6.60;77.00
76998;BME280;65930;48.874;10.734;2023-04-25T03:21:08;95271.63;;;6.39;76.54
76998;BME280;65930;48.874;10.734;2023-04-25T03:23:38;95308.19;;;6.57;76.86
76998;BME280;65930;48.874;10.734;2023-04-25T03:26:07;95288.13;;;6.46;77.39
76998;BME280;65930;48.874;10.734;2023-04-25T03:28:37;95301.88;;;6.46;77.06
76998;BME280;65930;48.874;10.734;2023-04-25T03:31:06;95307.00;;;6.55;77.12
76998;BME280;65930;48.874;10.734;2023-04-25T03:33:37;95289.31;;;6.45;77.24
76998;BME280;65930;48.874;10.734;2023-04-25T03:36:06;95277.91;;;6.40;76.71
76998;BME280;65930;48.874;10.734;2023-04-25T03:38:37;95252.38;;;6.36;77.27
76998;BME280;65930;48.874;10.734;2023-04-25T03:41:08;95283.41;;;6.54;77.04
76998;BME280;65930;48.874;10.734;2023-04-25T03:43:37;95295.59;;;6.49;76.82
76998;BME280;65930;48.874;10.734;2023-04-25T03:46:05;95271.63;;;6.36;77.02
76998;BME280;65930;48.874;10.734;2023-04-25T03:48:33;95253.94;;;6.19;76.80
76998;BME280;65930;48.874;10.734;2023-04-25T03:51:05;95288.16;;;6.43;77.16
76998;BME280;65930;48.874;10.734;2023-04-25T03:53:33;95257.47;;;6.41;76.66
76998;BME280;65930;48.874;10.734;2023-04-25T03:56:04;95283.81;;;6.56;76.96
76998;BME280;65930;48.874;10.734;2023-04-25T03:58:35;95254.72;;;6.41;76.38
76998;BME280;65930;48.874;10.734;2023-04-25T04:01:14;95302.69;;;6.75;76.22
76998;BME280;65930;48.874;10.734;2023-04-25T04:03:47;95299.16;;;6.57;77.14
76998;BME280;65930;48.874;10.734;2023-04-25T04:06:26;95251.19;;;6.33;76.47
76998;BME280;65930;48.874;10.734;2023-04-25T04:08:57;95289.31;;;6.56;77.04
76998;BME280;65930;48.874;10.734;2023-04-25T04:11:28;95297.97;;;6.61;76.78
76998;BME280;65930;48.874;10.734;2023-04-25T04:14:09;95300.72;;;6.51;77.71
76998;BME280;65930;48.874;10.734;2023-04-25T04:16:56;95286.56;;;6.45;77.85
76998;BME280;65930;48.874;10.734;2023-04-25T04:19:35;95291.28;;;6.41;77.70
76998;BME280;65930;48.874;10.734;2023-04-25T04:22:33;95290.88;;;6.53;77.71
76998;BME280;65930;48.874;10.734;2023-04-25T04:25:24;95295.22;;;6.47;77.50
76998;BME280;65930;48.874;10.734;2023-04-25T04:27:53;95256.28;;;6.20;78.18
76998;BME280;65930;48.874;10.734;2023-04-25T04:30:35;95319.22;;;6.57;78.47
76998;BME280;65930;48.874;10.734;2023-04-25T04:33:10;95298.34;;;6.42;78.16
76998;BME280;65930;48.874;10.734;2023-04-25T04:35:50;95309.38;;;6.53;78.13
76998;BME280;65930;48.874;10.734;2023-04-25T04:38:42;95274.34;;;6.18;78.15
76998;BME280;65930;48.874;10.734;2023-04-25T04:41:13;95278.28;;;6.35;77.81
76998;BME280;65930;48.874;10.734;2023-04-25T04:44:15;95280.28;;;6.38;78.19
76998;BME280;65930;48.874;10.734;2023-04-25T04:47:04;95255.09;;;6.22;77.81
76998;BME280;65930;48.874;10.734;2023-04-25T04:49:44;95263.38;;;6.29;77.66
76998;BME280;65930;48.874;10.734;2023-04-25T04:52:44;95310.13;;;6.53;77.56
76998;BME280;65930;48.874;10.734;2023-04-25T04:55:17;95317.22;;;6.51;77.23
76998;BME280;65930;48.874;10.734;2023-04-25T04:57:56;95242.53;;;6.28;77.66
76998;BME280;65930;48.874;10.734;2023-04-25T05:00:25;95292.47;;;6.44;78.54
76998;BME280;65930;48.874;10.734;2023-04-25T05:02:55;95266.53;;;6.38;78.75
76998;BME280;65930;48.874;10.734;2023-04-25T05:05:25;95266.13;;;6.32;79.01
76998;BME280;65930;48.874;10.734;2023-04-25T05:07:55;95289.72;;;6.51;78.58
76998;BME280;65930;48.874;10.734;2023-04-25T05:10:29;95277.91;;;6.50;78.74
76998;BME280;65930;48.874;10.734;2023-04-25T05:12:57;95260.63;;;6.32;78.80
76998;BME280;65930;48.874;10.734;2023-04-25T05:15:26;95285.41;;;6.57;78.56
76998;BME280;65930;48.874;10.734;2023-04-25T05:17:56;95279.50;;;6.48;79.35
76998;BME280;65930;48.874;10.734;2023-04-25T05:20:26;95302.28;;;6.59;78.89
76998;BME280;65930;48.874;10.734;2023-04-25T05:22:55;95256.69;;;6.40;79.24
76998;BME280;65930;48.874;10.734;2023-04-25T05:25:23;95258.25;;;6.45;79.57
76998;BME280;65930;48.874;10.734;2023-04-25T05:27:55;95296.00;;;6.62;79.82
76998;BME280;65930;48.874;10.734;2023-04-25T05:30:25;95260.63;;;6.43;80.28
76998;BME280;65930;48.874;10.734;2023-04-25T05:32:59;95286.56;;;6.42;80.77
76998;BME280;65930;48.874;10.734;2023-04-25T05:35:28;95294.41;;;6.40;81.51
76998;BME280;65930;48.874;10.734;2023-04-25T05:37:57;95262.19;;;6.33;81.09
76998;BME280;65930;48.874;10.734;2023-04-25T05:40:27;95291.66;;;6.54;81.86
76998;BME280;65930;48.874;10.734;2023-04-25T05:43:11;95293.63;;;6.32;80.80
76998;BME280;65930;48.874;10.734;2023-04-25T05:45:43;95269.66;;;6.36;81.38
76998;BME280;65930;48.874;10.734;2023-04-25T05:48:15;95292.06;;;6.63;80.26
76998;BME280;65930;48.874;10.734;2023-04-25T05:50:47;95259.44;;;6.37;79.57
76998;BME280;65930;48.874;10.734;2023-04-25T05:53:18;95255.91;;;6.40;79.16
76998;BME280;65930;48.874;10.734;2023-04-25T05:55:51;95334.53;;;6.69;79.37
76998;BME280;65930;48.874;10.734;2023-04-25T05:58:21;95270.81;;;6.35;78.80
76998;BME280;65930;48.874;10.734;2023-04-25T06:00:51;95259.03;;;6.45;79.16
76998;BME280;65930;48.874;10.734;2023-04-25T06:03:19;95292.84;;;6.49;78.79
76998;BME280;65930;48.874;10.734;2023-04-25T06:05:51;95290.47;;;6.41;79.42
76998;BME280;65930;48.874;10.734;2023-04-25T06:08:23;95265.75;;;6.48;79.48
76998;BME280;65930;48.874;10.734;2023-04-25T06:10:53;95296.38;;;6.64;79.12
76998;BME280;65930;48.874;10.734;2023-04-25T06:13:27;95281.06;;;6.59;79.16
76998;BME280;65930;48.874;10.734;2023-04-25T06:16:01;95303.84;;;6.78;79.36
76998;BME280;65930;48.874;10.734;2023-04-25T06:18:31;95308.56;;;6.59;78.67
76998;BME280;65930;48.874;10.734;2023-04-25T06:20:59;95300.72;;;6.61;80.25
76998;BME280;65930;48.874;10.734;2023-04-25T06:23:29;95322.72;;;6.86;80.80
76998;BME280;65930;48.874;10.734;2023-04-25T06:25:59;95327.44;;;6.96;80.12
76998;BME280;65930;48.874;10.734;2023-04-25T06:28:29;95290.47;;;6.83;80.08
76998;BME280;65930;48.874;10.734;2023-04-25T06:30:59;95281.47;;;6.47;81.13
76998;BME280;65930;48.874;10.734;2023-04-25T06:33:27;95279.09;;;6.39;80.72
76998;BME280;65930;48.874;10.734;2023-04-25T06:35:56;95306.63;;;6.71;79.83
76998;BME280;65930;48.874;10.734;2023-04-25T06:38:24;95295.59;;;6.63;80.00
76998;BME280;65930;48.874;10.734;2023-04-25T06:40:54;95268.50;;;6.48;81.05
76998;BME280;65930;48.874;10.734;2023-04-25T06:43:23;95333.75;;;6.83;79.97
76998;BME280;65930;48.874;10.734;2023-04-25T06:45:54;95269.28;;;6.55;80.39
76998;BME280;65930;48.874;10.734;2023-04-25T06:48:23;95268.47;;;6.55;79.47
76998;BME280;65930;48.874;10.734;2023-04-25T06:50:54;95288.53;;;6.59;79.53
76998;BME280;65930;48.874;10.734;2023-04-25T06:53:28;95301.50;;;6.73;79.37
76998;BME280;65930;48.874;10.734;2023-04-25T06:55:57;95310.53;;;6.73;78.73
76998;BME280;65930;48.874;10.734;2023-04-25T06:58:26;95292.88;;;6.53;78.34
76998;BME280;65930;48.874;10.734;2023-04-25T07:00:56;95303.88;;;6.53;78.28
76998;BME280;65930;48.874;10.734;2023-04-25T07:03:24;95309.38;;;6.74;78.43
76998;BME280;65930;48.874;10.734;2023-04-25T07:05:53;95308.59;;;6.70;78.95
76998;BME280;65930;48.874;10.734;2023-04-25T07:08:22;95307.41;;;6.71;78.78
76998;BME280;65930;48.874;10.734;2023-04-25T07:10:50;95274.00;;;6.48;78.12
76998;BME280;65930;48.874;10.734;2023-04-25T07:13:21;95279.88;;;6.46;78.22
76998;BME280;65930;48.874;10.734;2023-04-25T07:18:34;95269.69;;;6.57;78.78
76998;BME280;65930;48.874;10.734;2023-04-25T07:21:03;95327.84;;;6.77;78.24
76998;BME280;65930;48.874;10.734;2023-04-25T07:23:39;95298.75;;;6.73;78.64
76998;BME280;65930;48.874;10.734;2023-04-25T07:26:10;95280.66;;;6.75;78.96
76998;BME280;65930;48.874;10.734;2023-04-25T07:28:41;95323.53;;;6.76;78.36
76998;BME280;65930;48.874;10.734;2023-04-25T07:31:10;95250.41;;;6.47;78.52
76998;BME280;65930;48.874;10.734;2023-04-25T07:33:40;95293.25;;;6.76;78.74
76998;BME280;65930;48.874;10.734;2023-04-25T07:36:09;95278.31;;;6.67;78.35
76998;BME280;65930;48.874;10.734;2023-04-25T07:38:39;95315.63;;;6.96;77.84
76998;BME280;65930;48.874;10.734;2023-04-25T07:41:07;95301.50;;;6.90;77.96
76998;BME280;65930;48.874;10.734;2023-04-25T07:43:38;95274.00;;;6.76;77.07
76998;BME280;65930;48.874;10.734;2023-04-25T07:46:13;95276.31;;;6.78;76.45
76998;BME280;65930;48.874;10.734;2023-04-25T07:48:48;95304.63;;;6.82;76.45
76998;BME280;65930;48.874;10.734;2023-04-25T07:51:17;95297.53;;;6.91;76.51
76998;BME280;65930;48.874;10.734;2023-04-25T07:53:46;95307.00;;;6.90;76.52
76998;BME280;65930;48.874;10.734;2023-04-25T07:56:16;95286.19;;;6.72;75.92
76998;BME280;65930;48.874;10.734;2023-04-25T07:58:45;95332.16;;;6.82;75.95
76998;BME280;65930;48.874;10.734;2023-04-25T08:01:14;95296.78;;;6.62;77.19
76998;BME280;65930;48.874;10.734;2023-04-25T08:03:45;95289.72;;;6.51;77.82
76998;BME280;65930;48.874;10.734;2023-04-25T08:06:16;95289.69;;;6.40;79.38
76998;BME280;65930;48.874;10.734;2023-04-25T08:08:45;95332.16;;;6.60;81.25
76998;BME280;65930;48.874;10.734;2023-04-25T08:11:15;95299.94;;;6.47;81.92
76998;BME280;65930;48.874;10.734;2023-04-25T08:13:43;95366.00;;;6.72;82.55
76998;BME280;65930;48.874;10.734;2023-04-25T08:16:12;95362.84;;;6.73;83.06
76998;BME280;65930;48.874;10.734;2023-04-25T08:18:41;95368.72;;;6.68;82.57
76998;BME280;65930;48.874;10.734;2023-04-25T08:21:09;95370.69;;;6.64;82.40
76998;BME280;65930;48.874;10.734;2023-04-25T08:23:39;95370.31;;;6.69;81.93
76998;BME280;65930;48.874;10.734;2023-04-25T08:26:07;95369.13;;;6.88;81.93
76998;BME280;65930;48.874;10.734;2023-04-25T08:28:35;95373.06;;;7.15;81.00
76998;BME280;65930;48.874;10.734;2023-04-25T08:31:03;95368.31;;;7.19;82.00
76998;BME280;65930;48.874;10.734;2023-04-25T08:33:33;95373.09;;;6.90;81.71
76998;BME280;65930;48.874;10.734;2023-04-25T08:36:01;95389.19;;;6.95;81.79
76998;BME280;65930;48.874;10.734;2023-04-25T08:38:40;95387.22;;;6.71;80.73
76998;BME280;65930;48.874;10.734;2023-04-25T08:41:11;95399.78;;;6.65;80.29
76998;BME280;65930;48.874;10.734;2023-04-25T08:43:42;95409.22;;;6.60;80.78
76998;BME280;65930;48.874;10.734;2023-04-25T08:46:12;95406.88;;;6.77;79.21
76998;BME280;65930;48.874;10.734;2023-04-25T08:48:42;95406.88;;;6.87;79.29
76998;BME280;65930;48.874;10.734;2023-04-25T08:51:17;95406.50;;;6.92;78.88
76998;BME280;65930;48.874;10.734;2023-04-25T08:53:52;95406.50;;;7.06;78.76
76998;BME280;65930;48.874;10.734;2023-04-25T08:56:26;95388.78;;;6.72;77.80
76998;BME280;65930;48.874;10.734;2023-04-25T08:58:59;95415.56;;;7.11;77.27
76998;BME280;65930;48.874;10.734;2023-04-25T09:01:34;95410.03;;;7.28;75.98
76998;BME280;65930;48.874;10.734;2023-04-25T09:04:08;95418.28;;;7.28;76.00
76998;BME280;65930;48.874;10.734;2023-04-25T09:06:37;95421.44;;;7.34;76.14
76998;BME280;65930;48.874;10.734;2023-04-25T09:09:07;95430.50;;;7.31;76.19
76998;BME280;65930;48.874;10.734;2023-04-25T09:11:37;95432.84;;;7.43;76.76
76998;BME280;65930;48.874;10.734;2023-04-25T09:14:13;95426.56;;;7.46;77.28
76998;BME280;65930;48.874;10.734;2023-04-25T09:17:01;95429.31;;;7.35;77.71
76998;BME280;65930;48.874;10.734;2023-04-25T09:19:31;95429.31;;;7.42;77.22
76998;BME280;65930;48.874;10.734;2023-04-25T09:22:04;95430.47;;;7.59;77.14
76998;BME280;65930;48.874;10.734;2023-04-25T09:24:35;95429.72;;;7.34;77.84
76998;BME280;65930;48.874;10.734;2023-04-25T09:27:05;95443.09;;;7.11;78.11
76998;BME280;65930;48.874;10.734;2023-04-25T09:29:34;95446.22;;;6.81;78.90
76998;BME280;65930;48.874;10.734;2023-04-25T09:32:17;95459.13;;;6.62;79.94
76998;BME280;65930;48.874;10.734;2023-04-25T09:34:53;95459.19;;;6.84;79.30
76998;BME280;65930;48.874;10.734;2023-04-25T09:37:23;95462.75;;;6.91;79.21
76998;BME280;65930;48.874;10.734;2023-04-25T09:39:56;95469.06;;;7.02;78.22
76998;BME280;65930;48.874;10.734;2023-04-25T09:42:27;95461.19;;;7.15;77.32
76998;BME280;65930;48.874;10.734;2023-04-25T09:44:56;95473.00;;;7.30;75.09
76998;BME280;65930;48.874;10.734;2023-04-25T09:47:26;95473.41;;;7.25;74.04
76998;BME280;65930;48.874;10.734;2023-04-25T09:49:55;95473.00;;;7.69;73.48
76998;BME280;65930;48.874;10.734;2023-04-25T09:52:24;95461.19;;;7.79;72.15
76998;BME280;65930;48.874;10.734;2023-04-25T09:54:57;95465.88;;;7.82;70.55
76998;BME280;65930;48.874;10.734;2023-04-25T09:57:52;95449.63;;;8.30;69.92
76998;BME280;65930;48.874;10.734;2023-04-25T10:00:22;95473.59;;;8.47;68.16
76998;BME280;65930;48.874;10.734;2023-04-25T10:02:51;95466.06;;;9.20;67.38
76998;BME280;65930;48.874;10.734;2023-04-25T10:05:21;95456.28;;;9.12;66.51
76998;BME280;65930;48.874;10.734;2023-04-25T10:07:52;95460.53;;;9.24;65.63
76998;BME280;65930;48.874;10.734;2023-04-25T10:10:22;95465.94;;;9.38;65.90
76998;BME280;65930;48.874;10.734;2023-04-25T10:12:53;95461.84;;;9.05;66.78
76998;BME280;65930;48.874;10.734;2023-04-25T10:15:21;95457.41;;;9.22;64.67
76998;BME280;65930;48.874;10.734;2023-04-25T10:17:50;95456.91;;;9.34;64.23
76998;BME280;65930;48.874;10.734;2023-04-25T10:20:19;95462.56;;;9.16;63.91
76998;BME280;65930;48.874;10.734;2023-04-25T10:22:55;95453.66;;;8.88;65.69
76998;BME280;65930;48.874;10.734;2023-04-25T10:25:31;95456.81;;;8.90;65.79
76998;BME280;65930;48.874;10.734;2023-04-25T10:28:03;95446.28;;;9.29;64.57
76998;BME280;65930;48.874;10.734;2023-04-25T10:30:38;95436.06;;;9.67;62.20
76998;BME280;65930;48.874;10.734;2023-04-25T10:33:32;95430.44;;;10.15;59.96
76998;BME280;65930;48.874;10.734;2023-04-25T10:36:11;95430.78;;;9.83;62.34
76998;BME280;65930;48.874;10.734;2023-04-25T10:38:42;95443.47;;;10.18;60.13
76998;BME280;65930;48.874;10.734;2023-04-25T10:41:13;95455.47;;;9.63;61.37
76998;BME280;65930;48.874;10.734;2023-04-25T10:43:43;95437.25;;;9.69;60.68
76998;BME280;65930;48.874;10.734;2023-04-25T10:46:19;95433.88;;;9.51;60.65
76998;BME280;65930;48.874;10.734;2023-04-25T10:48:49;95433.59;;;9.80;60.04
76998;BME280;65930;48.874;10.734;2023-04-25T10:54:23;95456.09;;;9.82;59.28
76998;BME280;65930;48.874;10.734;2023-04-25T10:56:54;95439.94;;;10.14;60.15
76998;BME280;65930;48.874;10.734;2023-04-25T10:59:25;95454.56;;;10.52;58.47
76998;BME280;65930;48.874;10.734;2023-04-25T11:01:53;95451.47;;;10.77;57.52
76998;BME280;65930;48.874;10.734;2023-04-25T11:04:23;95442.13;;;10.33;59.62
76998;BME280;65930;48.874;10.734;2023-04-25T11:07:05;95445.78;;;9.86;60.10
76998;BME280;65930;48.874;10.734;2023-04-25T11:09:38;95448.78;;;10.02;58.13
76998;BME280;65930;48.874;10.734;2023-04-25T11:12:09;95453.41;;;10.49;58.84
76998;BME280;65930;48.874;10.734;2023-04-25T11:14:38;95457.38;;;10.48;58.46
76998;BME280;65930;48.874;10.734;2023-04-25T11:17:11;95452.91;;;10.24;61.56
76998;BME280;65930;48.874;10.734;2023-04-25T11:19:40;95456.34;;;10.35;58.50
76998;BME280;65930;48.874;10.734;2023-04-25T11:22:10;95447.41;;;10.21;58.13
76998;BME280;65930;48.874;10.734;2023-04-25T11:24:38;95453.69;;;10.58;58.99
76998;BME280;65930;48.874;10.734;2023-04-25T11:27:08;95456.19;;;10.15;59.31
76998;BME280;65930;48.874;10.734;2023-04-25T11:29:36;95451.59;;;9.95;58.60
76998;BME280;65930;48.874;10.734;2023-04-25T11:32:04;95461.16;;;9.46;60.70
76998;BME280;65930;48.874;10.734;2023-04-25T11:34:33;95460.41;;;9.42;61.54
76998;BME280;65930;48.874;10.734;2023-04-25T11:37:03;95446.03;;;9.57;61.98
76998;BME280;65930;48.874;10.734;2023-04-25T11:39:31;95442.59;;;9.43;61.95
76998;BME280;65930;48.874;10.734;2023-04-25T11:41:59;95460.81;;;9.40;59.92
76998;BME280;65930;48.874;10.734;2023-04-25T11:44:35;95465.22;;;9.31;61.41
76998;BME280;65930;48.874;10.734;2023-04-25T11:47:03;95447.88;;;9.26;62.69
76998;BME280;65930;48.874;10.734;2023-04-25T11:49:31;95468.28;;;9.43;63.71
76998;BME280;65930;48.874;10.734;2023-04-25T11:52:02;95445.59;;;10.03;60.23
76998;BME280;65930;48.874;10.734;2023-04-25T11:54:31;95462.63;;;10.39;60.16
76998;BME280;65930;48.874;10.734;2023-04-25T11:56:59;95466.00;;;10.20;58.53
76998;BME280;65930;48.874;10.734;2023-04-25T11:59:28;95464.50;;;10.08;59.48
76998;BME280;65930;48.874;10.734;2023-04-25T12:01:58;95454.78;;;10.34;60.00
76998;BME280;65930;48.874;10.734;2023-04-25T12:04:30;95477.56;;;10.45;50.18
76998;BME280;65930;48.874;10.734;2023-04-25T12:07:00;95454.19;;;10.16;48.69
76998;BME280;65930;48.874;10.734;2023-04-25T12:09:31;95463.03;;;10.72;50.46
76998;BME280;65930;48.874;10.734;2023-04-25T12:12:00;95468.25;;;10.93;49.31
76998;BME280;65930;48.874;10.734;2023-04-25T12:14:32;95475.56;;;10.80;48.15
76998;BME280;65930;48.874;10.734;2023-04-25T12:17:03;95474.09;;;10.72;48.92
76998;BME280;65930;48.874;10.734;2023-04-25T12:19:36;95461.06;;;10.69;50.93
76998;BME280;65930;48.874;10.734;2023-04-25T12:22:19;95470.28;;;11.19;49.57
76998;BME280;65930;48.874;10.734;2023-04-25T12:24:48;95478.34;;;11.10;52.16
76998;BME280;65930;48.874;10.734;2023-04-25T12:27:17;95467.25;;;11.10;51.72
76998;BME280;65930;48.874;10.734;2023-04-25T12:29:53;95467.88;;;11.21;51.80
76998;BME280;65930;48.874;10.734;2023-04-25T12:32:24;95461.28;;;10.51;52.59
76998;BME280;65930;48.874;10.734;2023-04-25T12:34:53;95473.31;;;10.37;54.00
76998;BME280;65930;48.874;10.734;2023-04-25T12:37:21;95473.44;;;10.60;54.23
76998;BME280;65930;48.874;10.734;2023-04-25T12:39:49;95477.09;;;10.20;56.19
76998;BME280;65930;48.874;10.734;2023-04-25T12:42:17;95483.09;;;10.49;56.97
76998;BME280;65930;48.874;10.734;2023-04-25T12:44:45;95480.16;;;10.29;55.19
76998;BME280;65930;48.874;10.734;2023-04-25T12:47:15;95476.94;;;10.34;57.03
76998;BME280;65930;48.874;10.734;2023-04-25T12:49:44;95481.47;;;10.51;55.27
76998;BME280;65930;48.874;10.734;2023-04-25T12:52:12;95489.09;;;10.74;56.52
76998;BME280;65930;48.874;10.734;2023-04-25T12:54:40;95486.38;;;10.37;56.47
76998;BME280;65930;48.874;10.734;2023-04-25T12:57:08;95494.38;;;9.87;54.99
76998;BME280;65930;48.874;10.734;2023-04-25T12:59:36;95494.81;;;9.82;56.10
76998;BME280;65930;48.874;10.734;2023-04-25T13:02:04;95493.25;;;9.81;55.05
76998;BME280;65930;48.874;10.734;2023-04-25T13:04:32;95502.94;;;9.99;56.45
76998;BME280;65930;48.874;10.734;2023-04-25T13:07:02;95501.72;;;10.04;55.97
76998;BME280;65930;48.874;10.734;2023-04-25T13:09:30;95500.47;;;10.15;54.87
76998;BME280;65930;48.874;10.734;2023-04-25T13:11:58;95504.47;;;10.04;54.40
76998;BME280;65930;48.874;10.734;2023-04-25T13:14:26;95504.03;;;10.09;53.89
76998;BME280;65930;48.874;10.734;2023-04-25T13:16:54;95510.00;;;10.04;55.29
76998;BME280;65930;48.874;10.734;2023-04-25T13:19:22;95509.34;;;9.89;55.97
76998;BME280;65930;48.874;10.734;2023-04-25T13:21:50;95521.72;;;9.78;56.21
76998;BME280;65930;48.874;10.734;2023-04-25T13:24:22;95521.66;;;9.85;56.38